• Join FlightAware (Why Join?)
  • Login
  • US Flag 
04:09AM EDT


 

Airport Tracker/Info


-or-


 

Live Flight TrackerFlight Track Log ✈ CES2828 ✈ 31-Aug-2013 ✈ ZGKL / KWL - ZSNJ / NKG

Flight Track Log - Related Links

Times and Time Zones

All times are in EDT time to prevent confusion due to time zone crossing. See the CES2828 flight status page for this flight to view local times or setup timezone preferences in your user account.

Time Position Orientation Groundspeed Altitude Reporting Facility
EDT Latitude Longitude Course Direction KTS MPH feet Rate Location/Type
12:27PM 26.4442 111.5637 48° Northeast  Level Estimated
12:28PM 26.5118 111.6493 49° Northeast  Level Estimated
12:29PM 26.5794 111.7350 49° Northeast  Level Estimated
12:30PM 26.6469 111.8209 49° Northeast  Level Estimated
12:31PM 26.7144 111.9068 49° Northeast  Level Estimated
12:32PM 26.7818 111.9928 49° Northeast  Level Estimated
12:33PM 26.8492 112.0790 49° Northeast  Level Estimated
12:34PM 26.9165 112.1652 49° Northeast  Level Estimated
12:35PM 26.9838 112.2516 49° Northeast  Level Estimated
12:36PM 27.0511 112.3380 49° Northeast  Level Estimated
12:37PM 27.1182 112.4246 49° Northeast  Level Estimated
12:38PM 27.1853 112.5112 49° Northeast  Level Estimated
12:39PM 27.2524 112.5980 49° Northeast  Level Estimated
12:40PM 27.3194 112.6848 49° Northeast  Level Estimated
12:41PM 27.3864 112.7718 49° Northeast  Level Estimated
12:42PM 27.4533 112.8589 49° Northeast  Level Estimated
12:43PM 27.5201 112.9461 49° Northeast  Level Estimated
12:44PM 27.5869 113.0333 49° Northeast  Level Estimated
12:45PM 27.6537 113.1207 49° Northeast  Level Estimated
12:46PM 27.7204 113.2082 49° Northeast  Level Estimated
12:47PM 27.7870 113.2958 49° Northeast  Level Estimated
12:48PM 27.8536 113.3836 49° Northeast  Level Estimated
12:49PM 27.9201 113.4714 49° Northeast  Level Estimated
12:50PM 27.9865 113.5593 49° Northeast  Level Estimated
12:51PM 28.0530 113.6473 49° Northeast  Level Estimated
12:52PM 28.1193 113.7355 50° Northeast  Level Estimated
12:53PM 28.1856 113.8237 50° Northeast  Level Estimated
12:54PM 28.2519 113.9121 50° Northeast  Level Estimated
12:55PM 28.3180 114.0006 50° Northeast  Level Estimated
12:56PM 28.3842 114.0891 50° Northeast  Level Estimated
12:57PM 28.4502 114.1778 50° Northeast  Level Estimated
12:58PM 28.5162 114.2667 50° Northeast  Level Estimated
12:59PM 28.5822 114.3556 50° Northeast  Level Estimated
01:00PM 28.6481 114.4446 50° Northeast  Level Estimated
01:01PM 28.7139 114.5338 50° Northeast  Level Estimated
01:02PM 28.7797 114.6230 50° Northeast  Level Estimated
01:03PM 28.8454 114.7124 50° Northeast  Level Estimated
01:04PM 28.9111 114.8018 50° Northeast  Level Estimated
01:05PM 28.9767 114.8914 50° Northeast  Level Estimated
01:06PM 29.0422 114.9811 50° Northeast  Level Estimated
01:07PM 29.1077 115.0710 50° Northeast  Level Estimated
01:08PM 29.1731 115.1609 50° Northeast  Level Estimated
01:09PM 29.2385 115.2510 50° Northeast  Level Estimated
01:10PM 29.3038 115.3411 50° Northeast  Level Estimated
01:11PM 29.3690 115.4314 50° Northeast  Level Estimated
01:12PM 29.4342 115.5218 50° Northeast  Level Estimated
01:13PM 29.4993 115.6123 50° Northeast  Level Estimated
01:14PM 29.5644 115.7029 50° Northeast  Level Estimated
01:15PM 29.6294 115.7937 50° Northeast  Level Estimated
01:16PM 29.6943 115.8845 51° Northeast  Level Estimated
01:17PM 29.7592 115.9755 51° Northeast  Level Estimated
01:18PM 29.8240 116.0666 51° Northeast  Level Estimated
01:19PM 29.8887 116.1578 51° Northeast  Level Estimated
01:20PM 29.9534 116.2491 51° Northeast  Level Estimated
01:21PM 30.0180 116.3406 51° Northeast  Level Estimated
01:22PM 30.0826 116.4322 51° Northeast  Level Estimated
01:23PM 30.1471 116.5238 51° Northeast  Level Estimated
01:24PM 30.2115 116.6157 51° Northeast  Level Estimated
01:25PM 30.2759 116.7076 51° Northeast  Level Estimated
01:26PM 30.3402 116.7996 51° Northeast  Level Estimated
01:27PM 30.4044 116.8918 51° Northeast  Level Estimated
01:28PM 30.4686 116.9841 51° Northeast  Level Estimated
01:29PM 30.5327 117.0765 51° Northeast  Level Estimated
01:30PM 30.5968 117.1691 51° Northeast  Level Estimated
01:31PM 30.6607 117.2617 51° Northeast  Level Estimated
01:32PM 30.7246 117.3545 51° Northeast  Level Estimated
01:33PM 30.7885 117.4474 51° Northeast  Level Estimated
01:34PM 30.8628 117.5558 51° Northeast  Level Estimated
01:35PM 30.9370 117.6643 51° Northeast  Level Estimated
01:36PM 31.0110 117.7730 51° Northeast  Level Estimated
01:37PM 31.0850 117.8819 52° Northeast  Level Estimated
01:38PM 31.1590 117.9909 52° Northeast  Level Estimated
01:39PM 31.2328 118.1001 52° Northeast  Level Estimated
01:40PM 31.3065 118.2095 52° Northeast  Level Estimated
01:41PM 31.3801 118.3190 52° Northeast  Level Estimated
01:42PM 31.4537 118.4288 52° Northeast  Level Estimated
01:43PM 31.5271 118.5387 52° Northeast  Level Estimated
01:44PM 31.6005 118.6487 52° Northeast  Level Estimated
01:45PM 31.6737 118.7590 52° Northeast  Level Estimated
01:46PM 31.7421 118.8620 52° Northeast  Level Estimated
01:47PM 31.7421 118.8620 270° West  Level Estimated
01:48PM 31.7421 118.8620 270° West  Level Estimated
01:49PM 31.7421 118.8620 270° West  Level Estimated
01:50PM 31.7421 118.8620 270° West  Level Estimated